DLH75 DTTA-LIEE
Flight info
| Callsign | DLH75 |
|---|---|
| Flight time | 0h 40m |
| Altitude | 28000 |
| Route | TOBIB3C TOBIB A725 OSMAR DCT PIRIX |
| Aircraft | A339/H-SADE1E2E3GHIJ3J5M1P2RWXY/LB2D1 |
Departure
| Time | 2026-04-28 18:53 |
|---|---|
| Airport | Tunis Carthage International Airport (DTTA) |
Arrival
| Time | 2026-04-28 19:34 |
|---|---|
| Airport | Cagliari Elmas Airport (LIEE) |
| Time | Latitude | Longitude | Altitude | Speed | Heading |
|---|---|---|---|---|---|
| 2026-04-28 18:28 | 36.83976 | 10.21961 | 22 ft | 0 kts | 7° |
| 2026-04-28 18:47 | 36.83981 | 10.21961 | 22 ft | 2 kts | 358° |
| 2026-04-28 18:47 | 36.84022 | 10.21933 | 22 ft | 16 kts | 329° |
| 2026-04-28 18:47 | 36.84137 | 10.21889 | 23 ft | 16 kts | 3° |
| 2026-04-28 18:48 | 36.84252 | 10.21914 | 24 ft | 16 kts | 11° |
| 2026-04-28 18:48 | 36.84336 | 10.21937 | 25 ft | 6 kts | 12° |
| 2026-04-28 18:48 | 36.84383 | 10.21951 | 26 ft | 7 kts | 17° |
| 2026-04-28 18:48 | 36.84450 | 10.22019 | 26 ft | 19 kts | 52° |
| 2026-04-28 18:49 | 36.84500 | 10.22187 | 23 ft | 16 kts | 71° |
| 2026-04-28 18:49 | 36.84519 | 10.22227 | 22 ft | 16 kts | 52° |
| 2026-04-28 18:49 | 36.84676 | 10.22305 | 22 ft | 14 kts | 13° |
| 2026-04-28 18:49 | 36.84782 | 10.22335 | 23 ft | 15 kts | 11° |
| 2026-04-28 18:50 | 36.84885 | 10.22363 | 23 ft | 15 kts | 11° |
| 2026-04-28 18:50 | 36.84985 | 10.22370 | 24 ft | 10 kts | 333° |
| 2026-04-28 18:50 | 36.85023 | 10.22303 | 25 ft | 9 kts | 297° |
| 2026-04-28 18:50 | 36.85052 | 10.22227 | 26 ft | 10 kts | 292° |
| 2026-04-28 18:51 | 36.85094 | 10.22098 | 28 ft | 22 kts | 291° |
| 2026-04-28 18:51 | 36.85166 | 10.21882 | 29 ft | 27 kts | 291° |
| 2026-04-28 18:51 | 36.85244 | 10.21729 | 30 ft | 17 kts | 341° |
| 2026-04-28 18:51 | 36.85351 | 10.21747 | 30 ft | 14 kts | 25° |
| 2026-04-28 18:52 | 36.85399 | 10.21838 | 29 ft | 13 kts | 95° |
| 2026-04-28 18:52 | 36.85386 | 10.21893 | 28 ft | 1 kts | 111° |
| 2026-04-28 18:52 | 36.85379 | 10.21917 | 28 ft | 4 kts | 111° |
| 2026-04-28 18:52 | 36.85354 | 10.21997 | 27 ft | 30 kts | 110° |
| 2026-04-28 18:53 | 36.85179 | 10.22531 | 24 ft | 99 kts | 108° |
| 2026-04-28 18:53 | 36.84817 | 10.23575 | 30 ft | 155 kts | 112° |
| 2026-04-28 18:53 | 36.84374 | 10.24842 | 561 ft | 161 kts | 111° |
| 2026-04-28 18:53 | 36.83956 | 10.26101 | 1243 ft | 159 kts | 112° |
| 2026-04-28 18:54 | 36.83558 | 10.27386 | 1945 ft | 161 kts | 113° |
| 2026-04-28 18:54 | 36.83108 | 10.28726 | 2398 ft | 177 kts | 116° |
| 2026-04-28 18:54 | 36.82381 | 10.29975 | 2818 ft | 191 kts | 144° |
| 2026-04-28 18:54 | 36.81075 | 10.30534 | 3234 ft | 211 kts | 181° |
| 2026-04-28 18:55 | 36.79649 | 10.29906 | 3790 ft | 230 kts | 217° |
| 2026-04-28 18:55 | 36.78991 | 10.28869 | 4292 ft | 238 kts | 245° |
| 2026-04-28 18:55 | 36.79029 | 10.26178 | 5445 ft | 244 kts | 295° |
| 2026-04-28 18:55 | 36.80186 | 10.24667 | 6224 ft | 246 kts | 333° |
| 2026-04-28 18:56 | 36.81823 | 10.24007 | 6932 ft | 250 kts | 346° |
| 2026-04-28 18:56 | 36.83513 | 10.23494 | 7700 ft | 252 kts | 346° |
| 2026-04-28 18:56 | 36.85204 | 10.22994 | 8495 ft | 252 kts | 346° |
| 2026-04-28 18:56 | 36.86945 | 10.22491 | 9117 ft | 260 kts | 346° |
| 2026-04-28 18:57 | 36.88757 | 10.21953 | 9509 ft | 278 kts | 345° |
| 2026-04-28 18:57 | 36.90665 | 10.21291 | 9913 ft | 290 kts | 344° |
| 2026-04-28 18:57 | 36.92654 | 10.20665 | 10207 ft | 298 kts | 345° |
| 2026-04-28 18:57 | 36.94719 | 10.20052 | 10565 ft | 317 kts | 345° |
| 2026-04-28 18:58 | 36.96933 | 10.19395 | 10919 ft | 335 kts | 345° |
| 2026-04-28 18:58 | 36.99246 | 10.18698 | 11361 ft | 349 kts | 345° |
| 2026-04-28 18:58 | 37.01653 | 10.17966 | 12149 ft | 353 kts | 344° |
| 2026-04-28 18:58 | 37.04042 | 10.17232 | 12970 ft | 355 kts | 343° |
| 2026-04-28 18:59 | 37.06457 | 10.16485 | 13750 ft | 358 kts | 343° |
| 2026-04-28 18:59 | 37.08889 | 10.15729 | 14483 ft | 362 kts | 343° |
| 2026-04-28 18:59 | 37.11354 | 10.14958 | 15214 ft | 367 kts | 343° |
| 2026-04-28 18:59 | 37.13885 | 10.14166 | 15921 ft | 371 kts | 343° |
| 2026-04-28 19:00 | 37.16397 | 10.13380 | 16619 ft | 376 kts | 343° |
| 2026-04-28 19:00 | 37.18948 | 10.12583 | 17316 ft | 380 kts | 343° |
| 2026-04-28 19:00 | 37.21523 | 10.11778 | 18004 ft | 384 kts | 343° |
| 2026-04-28 19:00 | 37.24163 | 10.10953 | 18708 ft | 388 kts | 343° |
| 2026-04-28 19:01 | 37.26779 | 10.10135 | 19412 ft | 391 kts | 343° |
| 2026-04-28 19:01 | 37.29449 | 10.09298 | 20094 ft | 395 kts | 343° |
| 2026-04-28 19:01 | 37.32130 | 10.08457 | 20753 ft | 399 kts | 342° |
| 2026-04-28 19:01 | 37.34824 | 10.07610 | 21402 ft | 402 kts | 342° |
| 2026-04-28 19:02 | 37.37560 | 10.06750 | 22042 ft | 405 kts | 342° |
| 2026-04-28 19:02 | 37.40282 | 10.05892 | 22639 ft | 408 kts | 342° |
| 2026-04-28 19:02 | 37.43063 | 10.05016 | 23239 ft | 411 kts | 342° |
| 2026-04-28 19:02 | 37.45858 | 10.04133 | 23800 ft | 415 kts | 342° |
| 2026-04-28 19:03 | 37.48644 | 10.03252 | 24341 ft | 418 kts | 342° |
| 2026-04-28 19:03 | 37.51505 | 10.02345 | 24857 ft | 422 kts | 342° |
| 2026-04-28 19:03 | 37.54325 | 10.01451 | 25344 ft | 425 kts | 342° |
| 2026-04-28 19:03 | 37.57240 | 10.00526 | 25833 ft | 429 kts | 342° |
| 2026-04-28 19:04 | 37.60149 | 9.99603 | 26290 ft | 432 kts | 342° |
| 2026-04-28 19:04 | 37.63078 | 9.98673 | 26734 ft | 436 kts | 342° |
| 2026-04-28 19:04 | 37.66033 | 9.97734 | 27170 ft | 439 kts | 342° |
| 2026-04-28 19:04 | 37.68995 | 9.96791 | 27591 ft | 443 kts | 342° |
| 2026-04-28 19:05 | 37.72007 | 9.95830 | 27916 ft | 446 kts | 342° |
| 2026-04-28 19:05 | 37.75027 | 9.94868 | 27957 ft | 447 kts | 342° |
| 2026-04-28 19:05 | 37.78033 | 9.93912 | 27959 ft | 446 kts | 342° |
| 2026-04-28 19:05 | 37.81033 | 9.92959 | 27957 ft | 446 kts | 342° |
| 2026-04-28 19:06 | 37.84051 | 9.91999 | 27963 ft | 446 kts | 342° |
| 2026-04-28 19:06 | 37.86047 | 9.91365 | 27967 ft | 445 kts | 342° |
| 2026-04-28 19:06 | 37.90026 | 9.90095 | 27969 ft | 446 kts | 342° |
| 2026-04-28 19:06 | 37.92908 | 9.89175 | 27967 ft | 446 kts | 342° |
| 2026-04-28 19:07 | 37.95889 | 9.88222 | 27967 ft | 446 kts | 342° |
| 2026-04-28 19:07 | 37.98923 | 9.87252 | 27967 ft | 446 kts | 342° |
| 2026-04-28 19:07 | 38.01923 | 9.86290 | 27945 ft | 443 kts | 342° |
| 2026-04-28 19:07 | 38.04872 | 9.85342 | 27656 ft | 439 kts | 342° |
| 2026-04-28 19:08 | 38.07833 | 9.84398 | 27076 ft | 437 kts | 342° |
| 2026-04-28 19:08 | 38.10797 | 9.83439 | 26508 ft | 435 kts | 342° |
| 2026-04-28 19:08 | 38.13776 | 9.82464 | 25986 ft | 432 kts | 342° |
| 2026-04-28 19:08 | 38.16684 | 9.81530 | 25478 ft | 429 kts | 343° |
| 2026-04-28 19:09 | 38.19556 | 9.80614 | 24986 ft | 426 kts | 343° |
| 2026-04-28 19:09 | 38.22409 | 9.79706 | 24509 ft | 422 kts | 343° |
| 2026-04-28 19:09 | 38.25240 | 9.78799 | 24025 ft | 419 kts | 343° |
| 2026-04-28 19:09 | 38.28059 | 9.77894 | 23552 ft | 415 kts | 343° |
| 2026-04-28 19:10 | 38.30868 | 9.76992 | 23078 ft | 411 kts | 343° |
| 2026-04-28 19:10 | 38.33640 | 9.76098 | 22589 ft | 408 kts | 343° |
| 2026-04-28 19:10 | 38.36362 | 9.75218 | 22084 ft | 406 kts | 343° |
| 2026-04-28 19:10 | 38.39093 | 9.74336 | 21590 ft | 404 kts | 343° |
| 2026-04-28 19:11 | 38.41822 | 9.73454 | 21104 ft | 401 kts | 343° |
| 2026-04-28 19:11 | 38.44513 | 9.72583 | 20612 ft | 399 kts | 343° |
| 2026-04-28 19:11 | 38.47201 | 9.71711 | 20150 ft | 396 kts | 343° |
| 2026-04-28 19:11 | 38.49835 | 9.70858 | 19977 ft | 393 kts | 343° |
| 2026-04-28 19:12 | 38.52507 | 9.69991 | 19977 ft | 396 kts | 343° |
| 2026-04-28 19:12 | 38.55169 | 9.69127 | 19982 ft | 393 kts | 343° |
| 2026-04-28 19:12 | 38.57761 | 9.68287 | 19978 ft | 378 kts | 343° |
| 2026-04-28 19:12 | 38.60268 | 9.67475 | 19974 ft | 364 kts | 343° |
| 2026-04-28 19:13 | 38.62635 | 9.66707 | 19976 ft | 350 kts | 343° |
| 2026-04-28 19:13 | 38.64911 | 9.65966 | 19979 ft | 337 kts | 343° |
| 2026-04-28 19:13 | 38.67158 | 9.65234 | 19983 ft | 333 kts | 343° |
| 2026-04-28 19:13 | 38.69395 | 9.64502 | 19983 ft | 334 kts | 343° |
| 2026-04-28 19:14 | 38.71654 | 9.63762 | 19675 ft | 328 kts | 343° |
| 2026-04-28 19:14 | 38.73849 | 9.63044 | 18981 ft | 326 kts | 343° |
| 2026-04-28 19:14 | 38.76013 | 9.62336 | 18297 ft | 324 kts | 343° |
| 2026-04-28 19:14 | 38.78228 | 9.61610 | 17934 ft | 323 kts | 343° |
| 2026-04-28 19:15 | 38.80381 | 9.60906 | 17617 ft | 321 kts | 343° |
| 2026-04-28 19:15 | 38.82495 | 9.60214 | 17304 ft | 319 kts | 343° |
| 2026-04-28 19:15 | 38.84608 | 9.59521 | 16984 ft | 318 kts | 343° |
| 2026-04-28 19:15 | 38.86033 | 9.59055 | 16607 ft | 316 kts | 343° |
| 2026-04-28 19:16 | 38.88873 | 9.58125 | 15732 ft | 312 kts | 343° |
| 2026-04-28 19:16 | 38.90952 | 9.57441 | 15093 ft | 310 kts | 343° |
| 2026-04-28 19:16 | 38.93035 | 9.56757 | 14449 ft | 308 kts | 343° |
| 2026-04-28 19:16 | 38.95093 | 9.56081 | 13820 ft | 305 kts | 343° |
| 2026-04-28 19:17 | 38.97152 | 9.55402 | 13357 ft | 303 kts | 343° |
| 2026-04-28 19:17 | 38.99204 | 9.54728 | 13060 ft | 302 kts | 343° |
| 2026-04-28 19:17 | 39.01275 | 9.54046 | 12753 ft | 301 kts | 344° |
| 2026-04-28 19:17 | 39.03312 | 9.53377 | 12450 ft | 300 kts | 343° |
| 2026-04-28 19:18 | 39.05320 | 9.52715 | 12142 ft | 299 kts | 343° |
| 2026-04-28 19:18 | 39.07333 | 9.52051 | 11836 ft | 298 kts | 343° |
| 2026-04-28 19:18 | 39.09367 | 9.51380 | 11536 ft | 297 kts | 343° |
| 2026-04-28 19:18 | 39.11443 | 9.50695 | 11223 ft | 296 kts | 344° |
| 2026-04-28 19:19 | 39.13484 | 9.50033 | 10929 ft | 295 kts | 344° |
| 2026-04-28 19:19 | 39.15525 | 9.49375 | 10631 ft | 294 kts | 344° |
| 2026-04-28 19:19 | 39.17574 | 9.48715 | 10330 ft | 293 kts | 344° |
| 2026-04-28 19:19 | 39.19632 | 9.48052 | 10024 ft | 293 kts | 344° |
| 2026-04-28 19:20 | 39.21604 | 9.47188 | 9697 ft | 289 kts | 326° |
| 2026-04-28 19:20 | 39.23181 | 9.45456 | 9392 ft | 273 kts | 312° |
| 2026-04-28 19:20 | 39.24586 | 9.43522 | 9105 ft | 260 kts | 311° |
| 2026-04-28 19:20 | 39.25899 | 9.41719 | 8894 ft | 253 kts | 311° |
| 2026-04-28 19:21 | 39.27200 | 9.39990 | 8706 ft | 250 kts | 313° |
| 2026-04-28 19:21 | 39.28486 | 9.38328 | 8459 ft | 250 kts | 313° |
| 2026-04-28 19:21 | 39.29754 | 9.36714 | 8217 ft | 250 kts | 314° |
| 2026-04-28 19:21 | 39.31038 | 9.35097 | 7973 ft | 249 kts | 314° |
| 2026-04-28 19:22 | 39.32381 | 9.33415 | 7728 ft | 249 kts | 314° |
| 2026-04-28 19:22 | 39.33269 | 9.32306 | 7571 ft | 248 kts | 314° |
| 2026-04-28 19:22 | 39.35025 | 9.30116 | 7261 ft | 248 kts | 314° |
| 2026-04-28 19:22 | 39.36326 | 9.28493 | 7045 ft | 246 kts | 314° |
| 2026-04-28 19:23 | 39.37667 | 9.26821 | 6997 ft | 247 kts | 314° |
| 2026-04-28 19:23 | 39.39040 | 9.25107 | 6997 ft | 244 kts | 314° |
| 2026-04-28 19:23 | 39.40348 | 9.23476 | 6986 ft | 232 kts | 314° |
| 2026-04-28 19:23 | 39.41623 | 9.21885 | 6982 ft | 218 kts | 314° |
| 2026-04-28 19:24 | 39.42855 | 9.20346 | 6985 ft | 214 kts | 314° |
| 2026-04-28 19:24 | 39.44035 | 9.18868 | 6832 ft | 211 kts | 314° |
| 2026-04-28 19:24 | 39.45167 | 9.17448 | 6551 ft | 214 kts | 314° |
| 2026-04-28 19:24 | 39.46347 | 9.15969 | 6356 ft | 211 kts | 314° |
| 2026-04-28 19:25 | 39.47504 | 9.14522 | 6226 ft | 204 kts | 314° |
| 2026-04-28 19:25 | 39.48572 | 9.13184 | 5983 ft | 199 kts | 314° |
| 2026-04-28 19:25 | 39.49580 | 9.11917 | 5517 ft | 201 kts | 314° |
| 2026-04-28 19:25 | 39.50599 | 9.10636 | 5065 ft | 202 kts | 315° |
| 2026-04-28 19:26 | 39.51620 | 9.09287 | 4632 ft | 200 kts | 303° |
| 2026-04-28 19:26 | 39.52049 | 9.07592 | 4364 ft | 186 kts | 265° |
| 2026-04-28 19:26 | 39.51703 | 9.06020 | 4062 ft | 177 kts | 232° |
| 2026-04-28 19:26 | 39.50818 | 9.04898 | 3695 ft | 172 kts | 212° |
| 2026-04-28 19:27 | 39.49800 | 9.03978 | 3338 ft | 172 kts | 210° |
| 2026-04-28 19:27 | 39.48786 | 9.03082 | 2990 ft | 172 kts | 211° |
| 2026-04-28 19:27 | 39.47783 | 9.02178 | 2658 ft | 171 kts | 211° |
| 2026-04-28 19:27 | 39.46798 | 9.01274 | 2371 ft | 169 kts | 212° |
| 2026-04-28 19:28 | 39.45844 | 9.00382 | 2272 ft | 153 kts | 212° |
| 2026-04-28 19:28 | 39.44930 | 8.99525 | 2278 ft | 152 kts | 211° |
| 2026-04-28 19:28 | 39.44056 | 8.98708 | 2251 ft | 153 kts | 212° |
| 2026-04-28 19:28 | 39.43161 | 8.97868 | 2211 ft | 153 kts | 212° |
| 2026-04-28 19:29 | 39.42258 | 8.97020 | 2199 ft | 153 kts | 211° |
| 2026-04-28 19:29 | 39.41660 | 8.96458 | 2195 ft | 153 kts | 211° |
| 2026-04-28 19:29 | 39.40435 | 8.95309 | 2307 ft | 156 kts | 211° |
| 2026-04-28 19:29 | 39.39516 | 8.94447 | 2362 ft | 153 kts | 212° |
| 2026-04-28 19:30 | 39.38607 | 8.93591 | 2312 ft | 151 kts | 212° |
| 2026-04-28 19:30 | 39.37716 | 8.92756 | 2298 ft | 151 kts | 209° |
| 2026-04-28 19:30 | 39.36713 | 8.92466 | 2281 ft | 142 kts | 159° |
| 2026-04-28 19:30 | 39.35790 | 8.93111 | 2307 ft | 142 kts | 140° |
| 2026-04-28 19:31 | 39.34981 | 8.93993 | 2303 ft | 143 kts | 135° |
| 2026-04-28 19:31 | 39.34210 | 8.94906 | 2144 ft | 143 kts | 135° |
| 2026-04-28 19:31 | 39.33460 | 8.95792 | 1930 ft | 142 kts | 135° |
| 2026-04-28 19:31 | 39.32690 | 8.96690 | 1728 ft | 142 kts | 135° |
| 2026-04-28 19:32 | 39.31922 | 8.97579 | 1528 ft | 141 kts | 135° |
| 2026-04-28 19:32 | 39.31146 | 8.98476 | 1339 ft | 141 kts | 136° |
| 2026-04-28 19:32 | 39.30385 | 8.99352 | 1139 ft | 140 kts | 137° |
| 2026-04-28 19:32 | 39.29606 | 9.00244 | 950 ft | 140 kts | 137° |
| 2026-04-28 19:33 | 39.28858 | 9.01115 | 763 ft | 140 kts | 138° |
| 2026-04-28 19:33 | 39.28114 | 9.01981 | 550 ft | 139 kts | 138° |
| 2026-04-28 19:33 | 39.27367 | 9.02846 | 370 ft | 139 kts | 139° |
| 2026-04-28 19:33 | 39.26633 | 9.03705 | 183 ft | 138 kts | 139° |
| 2026-04-28 19:34 | 39.25876 | 9.04587 | 31 ft | 136 kts | 139° |
| 2026-04-28 19:34 | 39.25303 | 9.05246 | 29 ft | 58 kts | 139° |
| 2026-04-28 19:34 | 39.25101 | 9.05479 | 29 ft | 23 kts | 137° |
| 2026-04-28 19:34 | 39.25070 | 9.05640 | 29 ft | 6 kts | 60° |
| 2026-04-28 19:35 | 39.25079 | 9.05656 | 29 ft | 4 kts | 55° |
| 2026-04-28 19:35 | 39.25102 | 9.05689 | 29 ft | 4 kts | 30° |
| 2026-04-28 19:35 | 39.25131 | 9.05689 | 29 ft | 4 kts | 343° |
| 2026-04-28 19:35 | 39.25165 | 9.05669 | 29 ft | 5 kts | 311° |
| 2026-04-28 19:36 | 39.25192 | 9.05630 | 29 ft | 6 kts | 312° |
| 2026-04-28 19:36 | 39.25238 | 9.05578 | 29 ft | 10 kts | 321° |
| 2026-04-28 19:36 | 39.25299 | 9.05515 | 29 ft | 11 kts | 321° |
| 2026-04-28 19:36 | 39.25365 | 9.05458 | 29 ft | 9 kts | 348° |
| 2026-04-28 19:37 | 39.25393 | 9.05490 | 29 ft | 5 kts | 87° |
| 2026-04-28 19:37 | 39.25393 | 9.05528 | 29 ft | 7 kts | 90° |
| 2026-04-28 19:37 | 39.25373 | 9.05613 | 29 ft | 8 kts | 124° |
| 2026-04-28 19:37 | 39.25356 | 9.05682 | 29 ft | 8 kts | 85° |
| 2026-04-28 19:38 | 39.25386 | 9.05751 | 29 ft | 9 kts | 53° |
| 2026-04-28 19:38 | 39.25425 | 9.05820 | 29 ft | 8 kts | 62° |
| 2026-04-28 19:38 | 39.25416 | 9.05856 | 29 ft | 3 kts | 157° |
| 2026-04-28 19:38 | 39.25402 | 9.05869 | 29 ft | 3 kts | 140° |
| 2026-04-28 19:39 | 39.25382 | 9.05890 | 29 ft | 0 kts | 141° |
| 2026-04-28 19:40 | 39.25379 | 9.05893 | 29 ft | 6 kts | 141° |
| 2026-04-28 19:40 | 39.25377 | 9.05895 | 29 ft | 0 kts | 141° |